Time;durP1;ratioP1;P1;durP2;ratioP2;P2;SDS_P1;SDS_P2;PMS_P1;PMS_P2;Temp;Humidity;BMP_temperature;BMP_pressure;BME280_temperature;BME280_humidity;BME280_pressure;Samples;Min_cycle;Max_cycle;Signal;HPM_P1;HPM_P2
2022/05/22 00:02:25;;;;;;;11.57;2.75;;;13.00;99.90;;;;;;5090281;28;20455;-53
2022/05/22 00:04:51;;;;;;;8.65;2.90;;;13.00;99.90;;;;;;5089435;28;20028;-54
2022/05/22 00:07:16;;;;;;;9.45;2.60;;;13.00;99.90;;;;;;5072462;28;20520;-51
2022/05/22 00:09:42;;;;;;;4.10;2.90;;;13.00;99.90;;;;;;5071861;28;20112;-53
2022/05/22 00:12:09;;;;;;;10.27;4.22;;;13.00;99.90;;;;;;5084660;28;20052;-50
2022/05/22 00:14:35;;;;;;;3.95;2.40;;;13.00;99.90;;;;;;5069529;28;20078;-52
2022/05/22 00:17:01;;;;;;;5.82;2.60;;;12.90;99.90;;;;;;5089684;28;20028;-50
2022/05/22 00:19:31;;;;;;;9.85;2.53;;;12.80;99.90;;;;;;5073841;28;20029;-50
2022/05/22 00:21:57;;;;;;;4.05;2.40;;;12.80;99.90;;;;;;5071446;28;20104;-52
2022/05/22 00:24:28;;;;;;;8.82;4.05;;;12.70;99.90;;;;;;5090339;28;20028;-51
2022/05/22 00:26:54;;;;;;;10.82;2.88;;;12.60;99.90;;;;;;5072622;28;20029;-50
2022/05/22 00:29:20;;;;;;;5.00;2.60;;;12.40;99.90;;;;;;5070744;28;20031;-48
2022/05/22 00:31:46;;;;;;;5.38;3.05;;;12.40;99.90;;;;;;5070937;28;20074;-51
2022/05/22 00:34:12;;;;;;;5.10;2.47;;;12.40;99.90;;;;;;5071403;28;20027;-48
2022/05/22 00:36:38;;;;;;;5.65;3.05;;;12.40;99.90;;;;;;5074716;28;20468;-52
2022/05/22 00:39:04;;;;;;;9.00;2.92;;;12.30;99.90;;;;;;5070150;28;20093;-51
2022/05/22 00:41:32;;;;;;;5.40;2.88;;;12.30;99.90;;;;;;5072065;28;20086;-48
2022/05/22 00:43:59;;;;;;;5.90;3.13;;;12.30;99.90;;;;;;5070132;28;20420;-49
2022/05/22 00:46:25;;;;;;;6.40;2.88;;;12.30;99.90;;;;;;5083938;28;20168;-50
2022/05/22 00:49:00;;;;;;;9.18;3.03;;;12.30;99.90;;;;;;5088903;28;20025;-49
2022/05/22 00:51:40;;;;;;;3.20;2.90;;;12.30;99.90;;;;;;5089985;28;20032;-52
2022/05/22 00:54:20;;;;;;;2.80;2.60;;;12.20;99.90;;;;;;5088822;28;20039;-51
2022/05/22 00:57:09;;;;;;;7.63;2.92;;;12.20;99.90;;;;;;5075007;28;20021;-51
2022/05/22 00:59:39;;;;;;;12.18;3.25;;;12.10;99.90;;;;;;5073567;28;20090;-53
2022/05/22 01:02:06;;;;;;;6.53;2.85;;;12.00;99.90;;;;;;5073097;28;20475;-50
2022/05/22 01:04:33;;;;;;;10.38;3.00;;;12.00;99.90;;;;;;5085126;28;20594;-49
2022/05/22 01:07:01;;;;;;;3.70;3.10;;;11.90;99.90;;;;;;5073706;28;20029;-51
2022/05/22 01:09:26;;;;;;;3.95;3.10;;;11.80;99.90;;;;;;5074016;28;20025;-50
2022/05/22 01:11:58;;;;;;;3.85;3.10;;;11.70;99.90;;;;;;5075508;28;20035;-49
2022/05/22 01:14:25;;;;;;;6.85;3.05;;;11.60;99.90;;;;;;5079474;28;20017;-48
2022/05/22 01:16:51;;;;;;;5.40;3.70;;;11.50;99.90;;;;;;5073730;28;20062;-55
2022/05/22 01:19:21;;;;;;;4.45;3.53;;;11.60;99.90;;;;;;5074140;28;20036;-47
2022/05/22 01:21:58;;;;;;;3.40;2.92;;;11.50;99.90;;;;;;5091865;28;20069;-51
2022/05/22 01:24:23;;;;;;;5.40;3.20;;;11.40;99.90;;;;;;5087558;28;20054;-48
2022/05/22 01:26:51;;;;;;;3.70;3.13;;;11.40;99.90;;;;;;5092160;28;20028;-51
2022/05/22 01:29:17;;;;;;;6.82;3.42;;;11.40;99.90;;;;;;5092900;28;20028;-50
2022/05/22 01:31:43;;;;;;;5.55;3.03;;;11.40;99.90;;;;;;5093005;28;20027;-50
2022/05/22 01:34:09;;;;;;;3.90;3.13;;;11.30;99.90;;;;;;5083289;28;20069;-48
2022/05/22 01:36:35;;;;;;;4.90;3.10;;;11.20;99.90;;;;;;5092853;28;20024;-50
2022/05/22 01:39:00;;;;;;;5.00;2.97;;;11.10;99.90;;;;;;5093677;28;20563;-52
2022/05/22 01:41:26;;;;;;;9.55;3.30;;;11.10;99.90;;;;;;5091403;28;20057;-53
2022/05/22 01:43:52;;;;;;;6.18;3.53;;;11.10;99.90;;;;;;5089513;28;20048;-49
2022/05/22 01:46:18;;;;;;;12.50;3.33;;;11.10;99.90;;;;;;5093192;28;20390;-51
2022/05/22 01:48:44;;;;;;;4.10;3.03;;;11.10;99.90;;;;;;5091975;28;20035;-51
2022/05/22 01:51:10;;;;;;;9.23;2.95;;;11.10;99.90;;;;;;5092208;28;20031;-50
2022/05/22 01:53:36;;;;;;;4.13;3.38;;;11.00;99.90;;;;;;5086967;28;20032;-53
2022/05/22 01:56:02;;;;;;;5.65;3.67;;;11.00;99.90;;;;;;5071843;28;20029;-50
2022/05/22 01:58:28;;;;;;;12.90;3.28;;;11.10;99.90;;;;;;5072458;28;20020;-50
2022/05/22 02:00:54;;;;;;;7.78;3.50;;;11.10;99.90;;;;;;5072700;28;20625;-47
2022/05/22 02:03:20;;;;;;;5.18;3.13;;;11.00;99.90;;;;;;5076031;28;20024;-49
2022/05/22 02:05:58;;;;;;;7.00;3.10;;;11.00;99.90;;;;;;5092678;28;20399;-51
2022/05/22 02:08:24;;;;;;;7.70;2.80;;;10.90;99.90;;;;;;5089979;28;20048;-52
2022/05/22 02:11:01;;;;;;;10.50;3.17;;;10.80;99.90;;;;;;5091201;28;20064;-49
2022/05/22 02:13:33;;;;;;;11.07;3.50;;;10.80;99.90;;;;;;5081196;28;20026;-50
2022/05/22 02:15:58;;;;;;;6.30;3.97;;;10.80;99.90;;;;;;5084724;28;20032;-52
2022/05/22 02:18:24;;;;;;;5.57;2.97;;;10.80;99.90;;;;;;5072401;28;20028;-52
2022/05/22 02:20:50;;;;;;;8.10;3.72;;;10.70;99.90;;;;;;5072676;28;20044;-48
2022/05/22 02:23:18;;;;;;;7.47;3.58;;;10.70;99.90;;;;;;5083957;28;20549;-51
2022/05/22 02:25:47;;;;;;;12.27;3.03;;;10.70;99.90;;;;;;5092249;28;20032;-49
2022/05/22 02:28:17;;;;;;;6.13;3.50;;;10.70;99.90;;;;;;5080407;28;20383;-49
2022/05/22 02:30:49;;;;;;;9.52;3.45;;;10.70;99.90;;;;;;5082296;28;20471;-48
2022/05/22 02:33:14;;;;;;;7.28;3.55;;;10.70;99.90;;;;;;5090227;28;20051;-52
2022/05/22 02:35:41;;;;;;;9.23;2.63;;;10.70;99.90;;;;;;5091383;28;20094;-52
2022/05/22 02:38:08;;;;;;;6.07;3.58;;;10.70;99.90;;;;;;5091989;28;20028;-51
2022/05/22 02:40:34;;;;;;;10.95;3.30;;;10.70;99.90;;;;;;5090068;28;20108;-49
2022/05/22 02:43:00;;;;;;;3.83;2.95;;;10.70;99.90;;;;;;5084614;28;20112;-51
2022/05/22 02:45:29;;;;;;;4.10;3.80;;;10.60;99.90;;;;;;5071176;28;20024;-50
2022/05/22 02:47:55;;;;;;;6.63;3.83;;;10.70;99.90;;;;;;5078703;28;20100;-49
2022/05/22 02:50:24;;;;;;;6.40;3.92;;;10.70;99.90;;;;;;5091371;28;20609;-51
2022/05/22 02:52:50;;;;;;;9.93;3.30;;;10.70;99.90;;;;;;5086643;28;20017;-51
2022/05/22 02:55:17;;;;;;;4.45;3.80;;;10.70;99.90;;;;;;5070475;28;20013;-48
2022/05/22 02:57:43;;;;;;;3.55;3.17;;;10.70;99.90;;;;;;5071405;28;20055;-51
2022/05/22 03:00:14;;;;;;;7.40;4.00;;;10.60;99.90;;;;;;5073596;28;20505;-49
2022/05/22 03:02:40;;;;;;;8.93;3.67;;;10.60;99.90;;;;;;5086668;28;20040;-51
2022/05/22 03:05:06;;;;;;;8.18;3.60;;;10.60;99.90;;;;;;5070909;28;20035;-49
2022/05/22 03:07:36;;;;;;;17.60;4.22;;;10.50;99.90;;;;;;5071838;28;20597;-50
2022/05/22 03:10:02;;;;;;;13.07;3.97;;;10.50;99.90;;;;;;5072222;28;20016;-49
2022/05/22 03:12:28;;;;;;;7.38;4.07;;;10.50;99.90;;;;;;5073239;28;20017;-49
2022/05/22 03:14:57;;;;;;;10.30;3.78;;;10.30;99.90;;;;;;5089655;28;20479;-47
2022/05/22 03:17:24;;;;;;;5.28;3.78;;;10.20;99.90;;;;;;5090075;28;20024;-51
2022/05/22 03:19:50;;;;;;;7.18;3.40;;;10.10;99.90;;;;;;5075237;28;20036;-51
2022/05/22 03:22:16;;;;;;;5.07;3.10;;;10.20;99.90;;;;;;5070822;28;20048;-53
2022/05/22 03:24:42;;;;;;;7.70;3.65;;;10.10;99.90;;;;;;5090920;28;20455;-51
2022/05/22 03:27:12;;;;;;;4.38;3.88;;;10.00;99.90;;;;;;5076123;28;20033;-53
2022/05/22 03:29:39;;;;;;;5.93;3.22;;;10.00;99.90;;;;;;5071604;28;20040;-51
2022/05/22 03:32:06;;;;;;;5.28;3.55;;;10.10;99.90;;;;;;5071797;28;20059;-51
2022/05/22 03:34:31;;;;;;;7.65;3.08;;;10.10;99.90;;;;;;5089811;28;20066;-49
2022/05/22 03:36:57;;;;;;;8.95;3.15;;;10.10;99.90;;;;;;5089995;28;20355;-47
2022/05/22 03:39:24;;;;;;;5.05;3.30;;;10.10;99.90;;;;;;5090007;28;20027;-50
2022/05/22 03:41:50;;;;;;;4.35;3.13;;;10.00;99.90;;;;;;5091413;28;20035;-50
2022/05/22 03:44:16;;;;;;;10.13;3.15;;;10.00;99.90;;;;;;5087375;28;20043;-53
2022/05/22 03:46:42;;;;;;;5.10;3.42;;;9.90;99.90;;;;;;5090411;28;20027;-48
2022/05/22 03:49:08;;;;;;;7.35;3.80;;;9.90;99.90;;;;;;5087698;28;20021;-47
2022/05/22 03:51:34;;;;;;;9.73;4.28;;;10.00;99.90;;;;;;5070253;28;20032;-49
2022/05/22 03:54:00;;;;;;;24.42;9.68;;;10.10;99.90;;;;;;5084756;28;20032;-49
2022/05/22 03:56:26;;;;;;;20.48;9.02;;;10.20;99.90;;;;;;5091186;28;20028;-47
2022/05/22 03:58:51;;;;;;;4.93;3.75;;;10.30;99.90;;;;;;5091388;28;20047;-48
2022/05/22 04:01:17;;;;;;;9.95;5.03;;;10.30;99.90;;;;;;5091221;28;20110;-49
2022/05/22 04:03:43;;;;;;;10.75;3.50;;;10.40;99.90;;;;;;5079259;28;20033;-52
2022/05/22 04:06:10;;;;;;;15.35;4.10;;;10.50;99.90;;;;;;5070758;28;20031;-46
2022/05/22 04:08:36;;;;;;;16.30;3.20;;;10.50;99.90;;;;;;5072048;28;20025;-52
2022/05/22 04:11:14;;;;;;;5.75;3.45;;;10.40;99.90;;;;;;5072187;28;20097;-49
2022/05/22 04:13:40;;;;;;;11.95;3.60;;;10.40;99.90;;;;;;5077090;28;20032;-50
2022/05/22 04:16:06;;;;;;;4.25;3.30;;;10.50;99.90;;;;;;5074641;28;20012;-50
2022/05/22 04:18:32;;;;;;;7.80;3.53;;;10.60;99.90;;;;;;5091359;28;20452;-51
2022/05/22 04:20:58;;;;;;;4.35;3.75;;;10.70;99.90;;;;;;5082035;28;20473;-49
2022/05/22 04:26:08;;;;;;;3.88;3.40;;;10.80;99.90;;;;;;5082767;28;20146;-49
2022/05/22 04:28:34;;;;;;;4.03;3.10;;;11.00;99.90;;;;;;5090956;28;20467;-47
2022/05/22 04:31:03;;;;;;;11.48;3.42;;;11.00;99.90;;;;;;5090691;28;20028;-50
2022/05/22 04:33:30;;;;;;;6.22;3.35;;;11.20;99.90;;;;;;5086199;28;20127;-48
2022/05/22 04:35:56;;;;;;;7.38;4.03;;;11.20;99.90;;;;;;5074790;28;20361;-51
2022/05/22 04:38:23;;;;;;;5.72;3.70;;;11.30;99.90;;;;;;5075541;28;20056;-52
2022/05/22 04:40:58;;;;;;;6.40;2.95;;;11.30;99.90;;;;;;5073713;28;20075;-54
2022/05/22 04:43:25;;;;;;;4.93;3.28;;;11.50;99.90;;;;;;5081708;28;20028;-49
2022/05/22 04:45:51;;;;;;;2.65;2.20;;;11.70;99.90;;;;;;5094657;28;20114;-53
2022/05/22 04:48:18;;;;;;;3.28;2.83;;;11.80;99.90;;;;;;5095275;28;20039;-46
2022/05/22 04:50:46;;;;;;;3.28;2.72;;;11.80;99.90;;;;;;5076271;28;20052;-51
2022/05/22 04:53:16;;;;;;;5.65;3.08;;;11.80;99.90;;;;;;5079773;28;20020;-51
2022/05/22 04:55:42;;;;;;;3.25;2.95;;;11.80;99.90;;;;;;5094529;28;20027;-49
2022/05/22 04:58:08;;;;;;;5.85;2.92;;;11.90;99.90;;;;;;5094323;28;20490;-47
2022/05/22 05:00:34;;;;;;;5.93;3.47;;;12.00;99.90;;;;;;5093015;28;20099;-47
2022/05/22 05:02:59;;;;;;;5.95;3.78;;;12.20;99.90;;;;;;5089389;28;20028;-46
2022/05/22 05:05:27;;;;;;;7.57;3.25;;;12.20;99.90;;;;;;5073319;28;20059;-49
2022/05/22 05:07:53;;;;;;;3.47;3.05;;;12.30;99.90;;;;;;5073109;28;20032;-48
2022/05/22 05:10:19;;;;;;;5.97;3.13;;;12.50;99.90;;;;;;5074559;28;20346;-47
2022/05/22 05:12:45;;;;;;;3.55;3.22;;;12.70;99.90;;;;;;5075602;28;20027;-51
2022/05/22 05:15:14;;;;;;;4.07;2.75;;;12.80;99.90;;;;;;5093667;28;20069;-47
2022/05/22 05:17:42;;;;;;;6.38;3.13;;;12.80;99.90;;;;;;5053381;28;20083;-47
2022/05/22 05:20:09;;;;;;;6.53;3.72;;;12.80;99.90;;;;;;5085048;28;20028;-48
2022/05/22 05:22:35;;;;;;;3.83;3.28;;;13.00;99.90;;;;;;5074510;28;20044;-50
2022/05/22 05:25:20;;;;;;;5.05;3.08;;;13.20;99.90;;;;;;5094063;28;20607;-49
2022/05/22 05:27:45;;;;;;;3.25;2.95;;;13.30;99.90;;;;;;5076910;28;20127;-49
2022/05/22 05:30:12;;;;;;;6.07;3.50;;;13.40;99.90;;;;;;5073911;28;20095;-50
2022/05/22 05:32:38;;;;;;;6.10;3.08;;;13.50;99.90;;;;;;5073750;28;20052;-51
2022/05/22 05:35:09;;;;;;;6.30;3.08;;;13.60;99.90;;;;;;5073513;28;20020;-49
2022/05/22 05:37:35;;;;;;;6.32;3.65;;;13.80;99.90;;;;;;5076938;28;20024;-47
2022/05/22 05:40:01;;;;;;;9.25;3.65;;;13.90;99.90;;;;;;5081583;28;20048;-50
2022/05/22 05:42:32;;;;;;;8.02;3.17;;;13.90;99.90;;;;;;5073075;28;20032;-54
2022/05/22 05:44:58;;;;;;;3.28;2.95;;;14.10;99.90;;;;;;5073518;28;20037;-49
2022/05/22 05:47:24;;;;;;;6.60;2.90;;;14.10;99.90;;;;;;5086627;28;20165;-51
2022/05/22 05:49:49;;;;;;;3.35;2.55;;;14.20;99.90;;;;;;5093459;28;20043;-54
2022/05/22 05:52:15;;;;;;;5.45;3.92;;;14.30;99.90;;;;;;5093817;28;20512;-54
2022/05/22 05:54:41;;;;;;;4.57;2.38;;;14.40;99.90;;;;;;5092977;28;20501;-55
2022/05/22 05:57:06;;;;;;;6.85;2.95;;;14.40;99.90;;;;;;5082843;28;20024;-57
2022/05/22 05:59:33;;;;;;;3.03;2.65;;;14.60;99.90;;;;;;5073229;28;20024;-54
2022/05/22 06:02:00;;;;;;;3.90;2.60;;;14.80;99.90;;;;;;5072237;28;20438;-54
2022/05/22 06:04:25;;;;;;;9.25;3.22;;;14.80;99.90;;;;;;5071976;28;20025;-55
2022/05/22 06:06:51;;;;;;;4.15;2.75;;;15.00;99.90;;;;;;5075257;28;20016;-50
2022/05/22 06:09:17;;;;;;;3.85;2.63;;;15.10;99.90;;;;;;5072618;28;20021;-47
2022/05/22 06:11:43;;;;;;;3.40;2.67;;;15.20;99.90;;;;;;5072312;28;20023;-49
2022/05/22 06:14:09;;;;;;;5.25;2.50;;;15.30;99.90;;;;;;5072566;28;20409;-48
2022/05/22 06:16:34;;;;;;;5.65;3.00;;;15.40;99.90;;;;;;5072583;28;20096;-52
2022/05/22 06:19:00;;;;;;;7.28;2.75;;;15.40;99.90;;;;;;5070934;28;20538;-52
2022/05/22 06:21:26;;;;;;;4.90;2.45;;;15.50;99.90;;;;;;5077137;28;20048;-50
2022/05/22 06:23:52;;;;;;;2.92;2.50;;;15.60;99.90;;;;;;5092997;28;20490;-52
2022/05/22 06:26:18;;;;;;;5.38;3.05;;;15.70;99.90;;;;;;5093153;28;20028;-52
2022/05/22 06:28:44;;;;;;;3.72;2.80;;;15.70;99.90;;;;;;5089489;28;20101;-53
2022/05/22 06:31:11;;;;;;;4.47;3.05;;;15.90;99.90;;;;;;5084023;28;20420;-53
2022/05/22 06:33:37;;;;;;;9.88;2.78;;;16.00;99.90;;;;;;5092777;28;20031;-52
2022/05/22 06:36:11;;;;;;;6.53;3.00;;;16.10;99.90;;;;;;5093177;28;20035;-50
2022/05/22 06:41:21;;;;;;;4.57;2.45;;;16.20;99.90;;;;;;5072931;28;20070;-52
2022/05/22 06:43:49;;;;;;;4.43;2.72;;;16.40;99.90;;;;;;5072472;28;20479;-50
2022/05/22 06:46:16;;;;;;;7.80;2.13;;;16.40;99.90;;;;;;5072733;28;20074;-49
2022/05/22 06:48:41;;;;;;;5.30;2.00;;;16.40;99.90;;;;;;5074903;28;20898;-48
2022/05/22 06:51:07;;;;;;;5.15;2.33;;;16.50;99.90;;;;;;5091934;28;20107;-52
2022/05/22 06:53:33;;;;;;;5.85;2.25;;;16.60;99.90;;;;;;5092539;28;20077;-50
2022/05/22 06:55:58;;;;;;;8.05;2.30;;;16.80;99.90;;;;;;5091689;28;20701;-52
2022/05/22 06:58:24;;;;;;;6.10;1.95;;;16.80;99.90;;;;;;5089651;28;20027;-48
2022/05/22 07:00:51;;;;;;;5.57;2.15;;;16.90;99.40;;;;;;5070761;28;20025;-52
2022/05/22 07:03:17;;;;;;;3.35;2.00;;;17.10;99.70;;;;;;5071020;28;20131;-51
2022/05/22 07:05:43;;;;;;;2.95;2.00;;;17.30;99.40;;;;;;5071284;28;20048;-49
2022/05/22 07:08:09;;;;;;;3.35;2.10;;;17.40;98.70;;;;;;5071380;28;20025;-50
2022/05/22 07:13:19;;;;;;;8.95;2.80;;;17.60;98.50;;;;;;5091457;28;20127;-54
2022/05/22 07:15:45;;;;;;;5.90;2.35;;;17.60;96.90;;;;;;5091295;28;20066;-50
2022/05/22 07:18:11;;;;;;;5.55;2.30;;;17.40;96.00;;;;;;5091657;28;20016;-49
2022/05/22 07:20:37;;;;;;;7.35;2.10;;;17.60;97.70;;;;;;5072201;28;20640;-51
2022/05/22 07:23:02;;;;;;;10.52;2.10;;;18.00;96.30;;;;;;5071797;28;20040;-48
2022/05/22 07:25:28;;;;;;;5.97;2.00;;;18.20;97.40;;;;;;5071408;28;20020;-49
2022/05/22 07:27:54;;;;;;;19.58;3.28;;;18.30;97.20;;;;;;5070936;28;20373;-52
2022/05/22 07:30:19;;;;;;;5.05;2.28;;;18.30;95.30;;;;;;5088225;28;20111;-49
2022/05/22 07:32:45;;;;;;;3.55;2.70;;;18.20;93.60;;;;;;5091751;28;20026;-51
2022/05/22 07:35:11;;;;;;;9.40;2.78;;;18.30;93.90;;;;;;5092103;28;20020;-51
2022/05/22 07:37:36;;;;;;;4.35;2.30;;;18.50;95.10;;;;;;5091962;28;20023;-55
2022/05/22 07:40:03;;;;;;;4.07;1.83;;;18.60;92.70;;;;;;5077223;28;20460;-50
2022/05/22 07:42:28;;;;;;;8.25;2.45;;;18.60;91.40;;;;;;5071727;28;20032;-48
2022/05/22 07:44:54;;;;;;;5.05;2.13;;;18.40;91.50;;;;;;5071425;28;20025;-50
2022/05/22 07:47:19;;;;;;;4.43;2.00;;;18.70;91.40;;;;;;5071785;28;20082;-53
2022/05/22 07:52:29;;;;;;;5.18;1.83;;;18.90;91.00;;;;;;5071471;28;20034;-51
2022/05/22 07:54:56;;;;;;;5.30;1.83;;;19.00;90.60;;;;;;5071051;28;20096;-50
2022/05/22 07:57:21;;;;;;;4.30;1.92;;;19.00;91.50;;;;;;5071388;28;20227;-50
2022/05/22 07:59:47;;;;;;;6.95;2.38;;;19.20;91.60;;;;;;5082930;28;20527;-50
2022/05/22 08:02:13;;;;;;;7.15;2.22;;;19.10;92.20;;;;;;5091300;28;20039;-53
2022/05/22 08:04:43;;;;;;;6.00;2.20;;;19.10;90.30;;;;;;5091104;28;20107;-54
2022/05/22 08:07:09;;;;;;;3.25;1.85;;;19.20;89.20;;;;;;5070526;28;20023;-53
2022/05/22 08:09:35;;;;;;;5.47;1.67;;;19.10;91.30;;;;;;5071057;28;20028;-55
2022/05/22 08:12:00;;;;;;;8.00;3.67;;;18.90;88.90;;;;;;5069843;28;20024;-54
2022/05/22 08:14:26;;;;;;;11.50;6.22;;;18.90;89.40;;;;;;5071104;28;20021;-51
2022/05/22 08:16:54;;;;;;;4.00;2.00;;;18.80;89.80;;;;;;5071065;28;20032;-53
2022/05/22 08:19:19;;;;;;;3.13;1.42;;;19.00;91.80;;;;;;5078520;28;20012;-51
2022/05/22 08:21:45;;;;;;;1.92;1.67;;;19.20;90.10;;;;;;5086388;28;20436;-55
2022/05/22 08:24:11;;;;;;;9.15;3.20;;;19.20;86.60;;;;;;5070928;28;20055;-53
2022/05/22 08:26:37;;;;;;;5.68;2.58;;;19.30;87.40;;;;;;5071180;28;20052;-55
2022/05/22 08:29:03;;;;;;;6.10;2.33;;;19.30;85.90;;;;;;5075979;28;20023;-53
2022/05/22 08:31:29;;;;;;;4.97;3.03;;;19.00;87.50;;;;;;5075063;28;20526;-56
2022/05/22 08:33:55;;;;;;;6.00;2.45;;;19.20;88.00;;;;;;5070836;28;20448;-51
2022/05/22 08:36:20;;;;;;;5.00;2.00;;;19.00;85.60;;;;;;5070992;28;20032;-53
2022/05/22 08:38:46;;;;;;;4.47;1.85;;;19.10;85.70;;;;;;5070665;28;20029;-54
2022/05/22 08:41:29;;;;;;;2.95;1.77;;;19.50;84.50;;;;;;5069610;28;20081;-54
2022/05/22 08:44:09;;;;;;;6.90;2.60;;;19.70;83.10;;;;;;5070452;28;20021;-54
2022/05/22 08:46:42;;;;;;;7.72;2.95;;;19.90;84.70;;;;;;5069415;28;20278;-53
2022/05/22 08:49:20;;;;;;;;;;;20.00;82.40;;;;;;5071442;28;20029;-56
2022/05/22 08:51:54;;;;;;;4.63;3.10;;;19.90;81.60;;;;;;5070431;28;19909;-54
2022/05/22 08:54:34;;;;;;;3.05;2.20;;;20.00;83.00;;;;;;5069703;28;20039;-54
2022/05/22 08:59:56;;;;;;;6.47;2.03;;;20.30;82.70;;;;;;5070342;28;20059;-54
2022/05/22 09:02:24;;;;;;;2.67;1.60;;;20.40;79.40;;;;;;5070303;28;20034;-55
2022/05/22 09:04:57;;;;;;;3.10;1.50;;;20.40;77.70;;;;;;5070506;28;20032;-53
2022/05/22 09:07:31;;;;;;;5.30;1.73;;;20.70;77.40;;;;;;5084802;28;20115;-50
2022/05/22 09:10:05;;;;;;;6.55;1.85;;;20.90;80.20;;;;;;5088745;28;20351;-54
2022/05/22 09:12:30;;;;;;;3.72;2.00;;;21.20;78.50;;;;;;5070739;28;20024;-51
2022/05/22 09:15:10;;;;;;;6.75;2.15;;;21.30;79.70;;;;;;5070559;28;20473;-51
2022/05/22 09:17:46;;;;;;;2.85;1.35;;;21.50;79.00;;;;;;5070878;28;20024;-52
2022/05/22 09:20:20;;;;;;;2.17;1.58;;;21.60;78.60;;;;;;5073934;28;20028;-52
2022/05/22 09:23:08;;;;;;;4.80;1.50;;;21.50;73.80;;;;;;5072194;28;20476;-51
2022/05/22 09:26:00;;;;;;;9.88;1.92;;;21.60;79.60;;;;;;5074087;28;20074;-52
2022/05/22 09:28:34;;;;;;;7.38;2.40;;;21.80;77.10;;;;;;5072540;28;20078;-53
2022/05/22 09:31:27;;;;;;;3.35;1.63;;;21.90;77.70;;;;;;5073823;28;20029;-52
2022/05/22 09:33:59;;;;;;;9.93;1.55;;;21.60;76.40;;;;;;5073950;28;20025;-56
2022/05/22 09:36:34;;;;;;;5.75;1.35;;;21.90;74.90;;;;;;5077641;28;20042;-54
2022/05/22 09:39:02;;;;;;;3.25;1.48;;;22.00;73.20;;;;;;5073947;28;20563;-51
2022/05/22 09:42:07;;;;;;;2.63;1.73;;;22.00;73.70;;;;;;5072331;28;20016;-53
2022/05/22 09:44:32;;;;;;;;;;;21.70;71.00;;;;;;5065450;28;20048;-53
2022/05/22 09:47:26;;;;;;;3.08;1.55;;;21.80;75.90;;;;;;5074350;28;19904;-55
2022/05/22 09:50:15;;;;;;;4.57;1.70;;;22.30;74.90;;;;;;5089631;28;20029;-54
2022/05/22 09:52:58;;;;;;;3.20;1.42;;;22.70;71.00;;;;;;5044514;28;20033;-53
2022/05/22 09:55:30;;;;;;;;;;;22.10;70.10;;;;;;5053023;28;20035;-53
2022/05/22 09:58:29;;;;;;;6.45;1.63;;;22.50;72.20;;;;;;5055383;28;20375;-47
2022/05/22 10:01:12;;;;;;;3.72;1.75;;;22.70;67.90;;;;;;5041801;28;20036;-50
2022/05/22 10:04:09;;;;;;;9.75;1.92;;;22.10;72.40;;;;;;5045234;28;20041;-51
2022/05/22 10:06:47;;;;;;;2.63;1.65;;;22.30;72.60;;;;;;5042500;28;20036;-52
2022/05/22 10:09:45;;;;;;;6.32;3.10;;;22.70;71.90;;;;;;5042936;28;20042;-50
2022/05/22 10:12:23;;;;;;;8.35;2.58;;;22.30;73.30;;;;;;5042432;28;20032;-50
2022/05/22 10:15:02;;;;;;;5.30;1.40;;;22.60;71.00;;;;;;5042122;28;20032;-55
2022/05/22 10:17:48;;;;;;;4.15;1.67;;;22.50;70.50;;;;;;5043361;28;20119;-53
2022/05/22 10:20:55;;;;;;;3.67;1.67;;;23.10;68.00;;;;;;5041972;28;20025;-52
2022/05/22 10:23:42;;;;;;;2.90;1.65;;;23.20;67.80;;;;;;5045636;28;20136;-54
2022/05/22 10:26:35;;;;;;;12.50;4.10;;;23.20;69.40;;;;;;5044004;28;20020;-50
2022/05/22 10:29:08;;;;;;;4.82;2.90;;;22.90;68.60;;;;;;5041530;28;20361;-52
2022/05/22 10:31:46;;;;;;;3.20;1.73;;;22.80;65.90;;;;;;5041705;28;20124;-51
2022/05/22 10:34:19;;;;;;;2.50;1.35;;;23.00;67.30;;;;;;5041628;28;20435;-52
2022/05/22 10:36:52;;;;;;;1.30;1.10;;;23.50;65.80;;;;;;5042183;28;20060;-46
2022/05/22 10:39:19;;;;;;;;;;;24.00;68.60;;;;;;5042964;28;20029;-48
2022/05/22 10:44:36;;;;;;;2.30;1.40;;;24.00;68.10;;;;;;5041366;28;20098;-50
2022/05/22 10:47:02;;;;;;;12.23;5.95;;;24.00;64.10;;;;;;5041663;28;20025;-54
2022/05/22 10:49:43;;;;;;;3.20;1.63;;;23.90;67.10;;;;;;5042095;28;20170;-54
2022/05/22 10:52:12;;;;;;;3.03;1.45;;;23.90;62.30;;;;;;5042140;28;20060;-50
2022/05/22 10:54:50;;;;;;;3.65;1.40;;;24.10;62.60;;;;;;5041217;28;20518;-50
2022/05/22 10:57:21;;;;;;;9.75;1.92;;;24.20;65.90;;;;;;5042480;28;20048;-52
2022/05/22 10:59:48;;;;;;;5.50;1.63;;;24.00;64.20;;;;;;5042568;28;20028;-52
2022/05/22 11:02:25;;;;;;;3.17;1.65;;;24.00;60.90;;;;;;5045029;28;20039;-53
2022/05/22 11:04:53;;;;;;;3.75;1.35;;;23.90;62.00;;;;;;5052051;28;20353;-54
2022/05/22 11:07:34;;;;;;;2.95;1.70;;;23.80;62.40;;;;;;5051613;28;20021;-49
2022/05/22 11:10:37;;;;;;;2.60;1.42;;;24.10;61.10;;;;;;5083417;28;20394;-54
2022/05/22 11:13:03;;;;;;;7.50;1.30;;;24.10;62.00;;;;;;5087702;28;20055;-52
2022/05/22 11:15:31;;;;;;;3.50;1.60;;;23.60;61.50;;;;;;5091627;28;20040;-52
2022/05/22 11:18:21;;;;;;;2.55;1.30;;;24.00;61.50;;;;;;5092149;28;20028;-52
2022/05/22 11:21:01;;;;;;;2.47;1.33;;;24.00;59.40;;;;;;5091467;28;20032;-51
2022/05/22 11:23:46;;;;;;;3.55;1.48;;;24.80;60.10;;;;;;5091460;28;20040;-51
2022/05/22 11:26:30;;;;;;;3.42;1.60;;;24.90;59.70;;;;;;5091686;28;20173;-54
2022/05/22 11:29:01;;;;;;;7.85;1.95;;;25.10;61.80;;;;;;5091172;28;20028;-52
2022/05/22 11:31:36;;;;;;;3.17;1.73;;;25.60;60.70;;;;;;5091553;28;20083;-53
2022/05/22 11:34:20;;;;;;;2.65;1.35;;;25.20;59.70;;;;;;5091304;28;20107;-51
2022/05/22 11:37:03;;;;;;;5.90;1.63;;;25.10;64.00;;;;;;5091965;28;20016;-53
2022/05/22 11:40:13;;;;;;;4.50;1.45;;;24.80;57.80;;;;;;5091796;28;20046;-54
2022/05/22 11:42:39;;;;;;;5.68;1.23;;;24.90;58.50;;;;;;5079077;28;20037;-54
2022/05/22 11:45:10;;;;;;;4.55;1.77;;;25.40;62.10;;;;;;5091754;28;20016;-55
2022/05/22 11:47:57;;;;;;;1.58;0.90;;;25.20;59.50;;;;;;5091893;28;20024;-55
2022/05/22 11:50:23;;;;;;;5.43;1.90;;;24.80;58.30;;;;;;5091725;28;20027;-54
2022/05/22 11:53:14;;;;;;;2.13;1.40;;;24.70;59.70;;;;;;5091737;28;20440;-55
2022/05/22 11:55:58;;;;;;;2.40;1.05;;;25.30;59.50;;;;;;5091668;28;20497;-52
2022/05/22 11:58:45;;;;;;;2.38;1.50;;;25.70;58.20;;;;;;5091552;28;20351;-55
2022/05/22 12:01:45;;;;;;;4.72;1.20;;;26.10;55.40;;;;;;5091353;28;20024;-54
2022/05/22 12:04:44;;;;;;;2.72;1.10;;;26.30;53.90;;;;;;5079086;28;20039;-52
2022/05/22 12:07:29;;;;;;;3.17;1.45;;;26.80;57.00;;;;;;5091719;28;20021;-50
2022/05/22 12:10:45;;;;;;;2.60;1.10;;;28.40;56.50;;;;;;5091365;28;20020;-55
2022/05/22 12:13:25;;;;;;;6.65;1.48;;;29.50;53.30;;;;;;5078740;28;20084;-52
2022/05/22 12:15:51;;;;;;;3.97;0.90;;;30.50;49.00;;;;;;5091434;28;20027;-55
2022/05/22 12:18:35;;;;;;;2.60;1.00;;;29.80;49.00;;;;;;5091440;28;20016;-54
2022/05/22 12:21:21;;;;;;;4.35;1.17;;;29.70;47.40;;;;;;5091396;28;20020;-53
2022/05/22 12:24:24;;;;;;;3.53;1.33;;;29.90;48.70;;;;;;5091002;28;20044;-53
2022/05/22 12:26:51;;;;;;;4.07;1.05;;;29.90;46.40;;;;;;5091453;28;20395;-55
2022/05/22 12:29:29;;;;;;;1.70;0.90;;;29.80;46.40;;;;;;5090942;28;20043;-56
2022/05/22 12:31:56;;;;;;;3.03;1.02;;;30.00;48.50;;;;;;5091349;28;20081;-56
2022/05/22 12:34:44;;;;;;;7.15;1.60;;;29.80;46.00;;;;;;5091124;28;20115;-56
2022/05/22 12:37:23;;;;;;;3.80;0.82;;;29.80;46.80;;;;;;5040164;28;20083;-55
2022/05/22 12:40:00;;;;;;;5.15;1.27;;;29.60;45.10;;;;;;5040359;28;20374;-56
2022/05/22 12:42:32;;;;;;;3.97;1.05;;;29.50;44.00;;;;;;5040526;28;20025;-56
2022/05/22 12:44:58;;;;;;;4.90;1.67;;;30.90;43.70;;;;;;5038846;28;20641;-54
2022/05/22 12:47:39;;;;;;;4.32;1.20;;;31.50;43.90;;;;;;5039983;28;20045;-54
2022/05/22 12:50:06;;;;;;;4.00;0.82;;;31.20;46.20;;;;;;5039020;28;20552;-56
2022/05/22 12:52:32;;;;;;;2.55;1.02;;;31.70;43.40;;;;;;5038740;28;20036;-55
2022/05/22 12:55:22;;;;;;;4.63;1.20;;;31.90;42.60;;;;;;5042681;28;22611;-56
2022/05/22 12:57:56;;;;;;;5.53;1.25;;;32.30;40.70;;;;;;5042542;28;20080;-55
2022/05/22 13:00:34;;;;;;;1.95;0.88;;;31.80;42.50;;;;;;5042521;28;20029;-57
2022/05/22 13:03:36;;;;;;;3.70;1.05;;;32.50;42.10;;;;;;5042200;28;20040;-56
2022/05/22 13:06:06;;;;;;;5.13;0.82;;;31.70;42.30;;;;;;5042341;28;21115;-56
2022/05/22 13:08:44;;;;;;;2.45;1.00;;;33.00;46.00;;;;;;5042048;28;20056;-56
2022/05/22 13:11:10;;;;;;;5.80;1.00;;;32.40;40.60;;;;;;5042653;28;20120;-56
2022/05/22 13:13:49;;;;;;;4.75;1.08;;;32.90;40.70;;;;;;5053526;28;20144;-56
2022/05/22 13:16:25;;;;;;;4.18;0.90;;;32.00;41.50;;;;;;5062518;28;20031;-56
2022/05/22 13:18:51;;;;;;;5.45;1.00;;;32.00;41.00;;;;;;5063000;28;20028;-56
2022/05/22 13:21:35;;;;;;;2.65;1.10;;;31.90;39.30;;;;;;5043854;28;20036;-55
2022/05/22 13:24:26;;;;;;;3.38;1.00;;;31.90;40.00;;;;;;5063118;28;20115;-56
2022/05/22 13:27:02;;;;;;;2.15;1.08;;;32.00;40.60;;;;;;5060152;28;20048;-57